sensor_id;sensor_type;location;lat;lon;timestamp;P1;durP1;ratioP1;P2;durP2;ratioP2
29812;SDS011;16707;48.106;11.548;2022-08-01T00:00:34;4.82;;;3.25;;
29812;SDS011;16707;48.106;11.548;2022-08-01T00:03:04;3.47;;;3.10;;
29812;SDS011;16707;48.106;11.548;2022-08-01T00:05:40;4.97;;;3.70;;
29812;SDS011;16707;48.106;11.548;2022-08-01T00:08:11;3.40;;;3.10;;
29812;SDS011;16707;48.106;11.548;2022-08-01T00:10:39;3.75;;;3.35;;
29812;SDS011;16707;48.106;11.548;2022-08-01T00:13:06;3.22;;;2.92;;
29812;SDS011;16707;48.106;11.548;2022-08-01T00:15:37;3.20;;;2.78;;
29812;SDS011;16707;48.106;11.548;2022-08-01T00:18:06;3.42;;;3.13;;
29812;SDS011;16707;48.106;11.548;2022-08-01T00:20:40;2.90;;;2.70;;
29812;SDS011;16707;48.106;11.548;2022-08-01T00:23:10;3.05;;;2.80;;
29812;SDS011;16707;48.106;11.548;2022-08-01T00:25:37;3.22;;;2.90;;
29812;SDS011;16707;48.106;11.548;2022-08-01T00:28:10;2.90;;;2.65;;
29812;SDS011;16707;48.106;11.548;2022-08-01T00:30:47;3.58;;;2.85;;
29812;SDS011;16707;48.106;11.548;2022-08-01T00:33:16;3.42;;;2.83;;
29812;SDS011;16707;48.106;11.548;2022-08-01T00:35:43;4.05;;;3.00;;
29812;SDS011;16707;48.106;11.548;2022-08-01T00:38:11;3.25;;;2.95;;
29812;SDS011;16707;48.106;11.548;2022-08-01T00:40:41;3.40;;;3.10;;
29812;SDS011;16707;48.106;11.548;2022-08-01T00:43:10;3.88;;;2.88;;
29812;SDS011;16707;48.106;11.548;2022-08-01T00:45:40;3.50;;;3.20;;
29812;SDS011;16707;48.106;11.548;2022-08-01T00:48:11;2.97;;;2.78;;
29812;SDS011;16707;48.106;11.548;2022-08-01T00:50:43;3.28;;;3.00;;
29812;SDS011;16707;48.106;11.548;2022-08-01T00:53:16;3.33;;;3.03;;
29812;SDS011;16707;48.106;11.548;2022-08-01T00:55:46;3.10;;;2.80;;
29812;SDS011;16707;48.106;11.548;2022-08-01T00:58:18;3.30;;;2.58;;
29812;SDS011;16707;48.106;11.548;2022-08-01T01:01:13;7.60;;;3.17;;
29812;SDS011;16707;48.106;11.548;2022-08-01T01:04:35;3.05;;;2.75;;
29812;SDS011;16707;48.106;11.548;2022-08-01T01:07:06;3.00;;;2.80;;
29812;SDS011;16707;48.106;11.548;2022-08-01T01:09:42;3.20;;;2.85;;
29812;SDS011;16707;48.106;11.548;2022-08-01T01:12:20;3.15;;;2.72;;
29812;SDS011;16707;48.106;11.548;2022-08-01T01:14:55;3.10;;;2.80;;
29812;SDS011;16707;48.106;11.548;2022-08-01T01:17:37;3.17;;;2.90;;
29812;SDS011;16707;48.106;11.548;2022-08-01T01:20:13;4.60;;;3.00;;
29812;SDS011;16707;48.106;11.548;2022-08-01T01:22:47;5.60;;;2.97;;
29812;SDS011;16707;48.106;11.548;2022-08-01T01:28:56;3.75;;;3.17;;
29812;SDS011;16707;48.106;11.548;2022-08-01T01:31:29;3.13;;;2.60;;
29812;SDS011;16707;48.106;11.548;2022-08-01T01:34:09;3.05;;;2.65;;
29812;SDS011;16707;48.106;11.548;2022-08-01T01:36:39;3.00;;;2.70;;
29812;SDS011;16707;48.106;11.548;2022-08-01T01:39:12;3.30;;;3.00;;
29812;SDS011;16707;48.106;11.548;2022-08-01T01:41:45;2.83;;;2.63;;
29812;SDS011;16707;48.106;11.548;2022-08-01T01:44:21;2.70;;;2.50;;
29812;SDS011;16707;48.106;11.548;2022-08-01T01:46:51;2.72;;;2.53;;
29812;SDS011;16707;48.106;11.548;2022-08-01T01:49:51;4.38;;;2.85;;
29812;SDS011;16707;48.106;11.548;2022-08-01T01:52:23;4.75;;;2.90;;
29812;SDS011;16707;48.106;11.548;2022-08-01T01:58:41;3.67;;;3.00;;
29812;SDS011;16707;48.106;11.548;2022-08-01T02:08:32;3.88;;;2.60;;
29812;SDS011;16707;48.106;11.548;2022-08-01T02:11:36;3.08;;;2.78;;
29812;SDS011;16707;48.106;11.548;2022-08-01T02:14:52;5.35;;;2.63;;
29812;SDS011;16707;48.106;11.548;2022-08-01T02:17:28;3.13;;;2.78;;
29812;SDS011;16707;48.106;11.548;2022-08-01T02:20:53;2.70;;;2.50;;
29812;SDS011;16707;48.106;11.548;2022-08-01T02:24:16;3.47;;;2.97;;
29812;SDS011;16707;48.106;11.548;2022-08-01T02:27:40;3.35;;;2.50;;
29812;SDS011;16707;48.106;11.548;2022-08-01T02:55:29;3.33;;;2.70;;
29812;SDS011;16707;48.106;11.548;2022-08-01T03:00:52;3.33;;;2.90;;
29812;SDS011;16707;48.106;11.548;2022-08-01T03:03:41;3.28;;;2.67;;
29812;SDS011;16707;48.106;11.548;2022-08-01T03:06:16;3.35;;;2.53;;
29812;SDS011;16707;48.106;11.548;2022-08-01T03:09:10;3.65;;;2.92;;
29812;SDS011;16707;48.106;11.548;2022-08-01T03:12:18;2.60;;;2.40;;
29812;SDS011;16707;48.106;11.548;2022-08-01T03:14:50;3.28;;;2.50;;
29812;SDS011;16707;48.106;11.548;2022-08-01T03:17:21;3.17;;;2.90;;
29812;SDS011;16707;48.106;11.548;2022-08-01T03:19:53;2.70;;;2.50;;
29812;SDS011;16707;48.106;11.548;2022-08-01T03:22:22;3.33;;;2.47;;
29812;SDS011;16707;48.106;11.548;2022-08-01T03:25:04;3.25;;;2.80;;
29812;SDS011;16707;48.106;11.548;2022-08-01T03:27:42;2.80;;;2.47;;
29812;SDS011;16707;48.106;11.548;2022-08-01T03:30:12;2.90;;;2.50;;
29812;SDS011;16707;48.106;11.548;2022-08-01T03:32:47;2.83;;;2.63;;
29812;SDS011;16707;48.106;11.548;2022-08-01T03:35:15;3.03;;;2.63;;
29812;SDS011;16707;48.106;11.548;2022-08-01T03:37:44;3.63;;;2.80;;
29812;SDS011;16707;48.106;11.548;2022-08-01T03:40:17;3.20;;;2.90;;
29812;SDS011;16707;48.106;11.548;2022-08-01T03:42:56;4.45;;;3.00;;
29812;SDS011;16707;48.106;11.548;2022-08-01T03:45:37;3.38;;;2.60;;
29812;SDS011;16707;48.106;11.548;2022-08-01T03:48:09;3.60;;;2.70;;
29812;SDS011;16707;48.106;11.548;2022-08-01T03:50:43;2.88;;;2.67;;
29812;SDS011;16707;48.106;11.548;2022-08-01T03:53:16;2.90;;;2.50;;
29812;SDS011;16707;48.106;11.548;2022-08-01T03:55:51;2.78;;;2.50;;
29812;SDS011;16707;48.106;11.548;2022-08-01T03:58:21;3.20;;;2.50;;
29812;SDS011;16707;48.106;11.548;2022-08-01T04:00:49;3.22;;;2.60;;
29812;SDS011;16707;48.106;11.548;2022-08-01T04:03:21;2.63;;;2.42;;
29812;SDS011;16707;48.106;11.548;2022-08-01T04:05:50;4.32;;;2.65;;
29812;SDS011;16707;48.106;11.548;2022-08-01T04:08:20;3.10;;;2.45;;
29812;SDS011;16707;48.106;11.548;2022-08-01T04:11:02;2.60;;;2.40;;
29812;SDS011;16707;48.106;11.548;2022-08-01T04:13:32;4.38;;;2.80;;
29812;SDS011;16707;48.106;11.548;2022-08-01T04:16:09;4.00;;;2.83;;
29812;SDS011;16707;48.106;11.548;2022-08-01T04:18:36;2.90;;;2.40;;
29812;SDS011;16707;48.106;11.548;2022-08-01T04:21:07;2.60;;;2.40;;
29812;SDS011;16707;48.106;11.548;2022-08-01T04:23:40;3.45;;;2.60;;
29812;SDS011;16707;48.106;11.548;2022-08-01T04:26:11;3.53;;;2.92;;
29812;SDS011;16707;48.106;11.548;2022-08-01T04:28:41;2.97;;;2.50;;
29812;SDS011;16707;48.106;11.548;2022-08-01T04:31:10;2.88;;;2.50;;
29812;SDS011;16707;48.106;11.548;2022-08-01T04:33:49;2.67;;;2.47;;
29812;SDS011;16707;48.106;11.548;2022-08-01T04:36:22;3.00;;;2.40;;
29812;SDS011;16707;48.106;11.548;2022-08-01T04:38:59;3.35;;;2.75;;
29812;SDS011;16707;48.106;11.548;2022-08-01T04:44:03;4.55;;;2.83;;
29812;SDS011;16707;48.106;11.548;2022-08-01T04:46:32;3.92;;;2.67;;
29812;SDS011;16707;48.106;11.548;2022-08-01T04:49:06;3.63;;;2.75;;
29812;SDS011;16707;48.106;11.548;2022-08-01T04:51:51;3.67;;;2.58;;
29812;SDS011;16707;48.106;11.548;2022-08-01T04:54:28;2.97;;;2.45;;
29812;SDS011;16707;48.106;11.548;2022-08-01T04:57:03;3.53;;;3.15;;
29812;SDS011;16707;48.106;11.548;2022-08-01T04:59:34;4.15;;;2.70;;
29812;SDS011;16707;48.106;11.548;2022-08-01T05:02:08;3.60;;;2.70;;
29812;SDS011;16707;48.106;11.548;2022-08-01T05:04:50;2.38;;;2.15;;
29812;SDS011;16707;48.106;11.548;2022-08-01T05:07:17;3.55;;;2.70;;
29812;SDS011;16707;48.106;11.548;2022-08-01T05:09:48;3.85;;;2.55;;
29812;SDS011;16707;48.106;11.548;2022-08-01T05:12:19;4.03;;;2.60;;
29812;SDS011;16707;48.106;11.548;2022-08-01T05:14:56;3.45;;;2.20;;
29812;SDS011;16707;48.106;11.548;2022-08-01T05:17:26;2.88;;;2.58;;
29812;SDS011;16707;48.106;11.548;2022-08-01T05:19:54;2.92;;;2.28;;
29812;SDS011;16707;48.106;11.548;2022-08-01T05:22:21;3.10;;;2.33;;
29812;SDS011;16707;48.106;11.548;2022-08-01T05:24:51;3.58;;;2.63;;
29812;SDS011;16707;48.106;11.548;2022-08-01T05:27:22;2.83;;;2.45;;
29812;SDS011;16707;48.106;11.548;2022-08-01T05:30:01;4.55;;;2.53;;
29812;SDS011;16707;48.106;11.548;2022-08-01T05:32:29;4.88;;;2.65;;
29812;SDS011;16707;48.106;11.548;2022-08-01T05:34:57;2.50;;;2.13;;
29812;SDS011;16707;48.106;11.548;2022-08-01T05:37:24;3.92;;;2.50;;
29812;SDS011;16707;48.106;11.548;2022-08-01T05:39:55;2.72;;;2.30;;
29812;SDS011;16707;48.106;11.548;2022-08-01T05:42:24;5.00;;;2.72;;
29812;SDS011;16707;48.106;11.548;2022-08-01T05:44:51;4.32;;;2.20;;
29812;SDS011;16707;48.106;11.548;2022-08-01T05:47:21;4.53;;;2.50;;
29812;SDS011;16707;48.106;11.548;2022-08-01T05:49:52;2.55;;;2.30;;
29812;SDS011;16707;48.106;11.548;2022-08-01T05:52:26;2.97;;;2.30;;
29812;SDS011;16707;48.106;11.548;2022-08-01T05:54:56;3.47;;;2.40;;
29812;SDS011;16707;48.106;11.548;2022-08-01T05:57:25;3.13;;;2.17;;
29812;SDS011;16707;48.106;11.548;2022-08-01T05:59:52;3.05;;;2.15;;
29812;SDS011;16707;48.106;11.548;2022-08-01T06:02:20;3.53;;;2.33;;
29812;SDS011;16707;48.106;11.548;2022-08-01T06:04:51;2.35;;;2.00;;
29812;SDS011;16707;48.106;11.548;2022-08-01T06:07:21;3.28;;;2.38;;
29812;SDS011;16707;48.106;11.548;2022-08-01T06:09:48;2.45;;;2.25;;
29812;SDS011;16707;48.106;11.548;2022-08-01T06:12:15;3.00;;;2.50;;
29812;SDS011;16707;48.106;11.548;2022-08-01T06:14:44;3.35;;;2.45;;
29812;SDS011;16707;48.106;11.548;2022-08-01T06:17:14;2.97;;;2.40;;
29812;SDS011;16707;48.106;11.548;2022-08-01T06:19:41;2.88;;;2.33;;
29812;SDS011;16707;48.106;11.548;2022-08-01T06:22:08;4.55;;;2.33;;
29812;SDS011;16707;48.106;11.548;2022-08-01T06:24:35;3.35;;;2.42;;
29812;SDS011;16707;48.106;11.548;2022-08-01T06:27:03;2.42;;;2.22;;
29812;SDS011;16707;48.106;11.548;2022-08-01T06:29:38;2.72;;;2.33;;
29812;SDS011;16707;48.106;11.548;2022-08-01T06:32:09;3.85;;;2.40;;
29812;SDS011;16707;48.106;11.548;2022-08-01T06:34:43;3.50;;;2.00;;
29812;SDS011;16707;48.106;11.548;2022-08-01T06:37:15;3.80;;;2.25;;
29812;SDS011;16707;48.106;11.548;2022-08-01T06:39:42;3.47;;;2.20;;
29812;SDS011;16707;48.106;11.548;2022-08-01T06:42:09;2.70;;;2.50;;
29812;SDS011;16707;48.106;11.548;2022-08-01T06:44:39;2.95;;;2.55;;
29812;SDS011;16707;48.106;11.548;2022-08-01T06:47:07;5.00;;;2.60;;
29812;SDS011;16707;48.106;11.548;2022-08-01T06:49:37;3.40;;;2.80;;
29812;SDS011;16707;48.106;11.548;2022-08-01T06:52:05;3.00;;;2.80;;
29812;SDS011;16707;48.106;11.548;2022-08-01T06:54:38;3.03;;;2.75;;
29812;SDS011;16707;48.106;11.548;2022-08-01T06:57:09;3.38;;;2.30;;
29812;SDS011;16707;48.106;11.548;2022-08-01T06:59:40;2.63;;;2.22;;
29812;SDS011;16707;48.106;11.548;2022-08-01T07:02:08;2.50;;;2.30;;
29812;SDS011;16707;48.106;11.548;2022-08-01T07:04:37;2.80;;;2.60;;
29812;SDS011;16707;48.106;11.548;2022-08-01T07:07:04;2.80;;;2.50;;
29812;SDS011;16707;48.106;11.548;2022-08-01T07:09:35;3.35;;;2.20;;
29812;SDS011;16707;48.106;11.548;2022-08-01T07:14:38;4.03;;;2.45;;
29812;SDS011;16707;48.106;11.548;2022-08-01T07:17:05;2.80;;;2.60;;
29812;SDS011;16707;48.106;11.548;2022-08-01T07:19:32;3.35;;;2.80;;
29812;SDS011;16707;48.106;11.548;2022-08-01T07:22:01;3.17;;;2.65;;
29812;SDS011;16707;48.106;11.548;2022-08-01T07:24:28;3.17;;;2.92;;
29812;SDS011;16707;48.106;11.548;2022-08-01T07:26:56;4.05;;;2.65;;
29812;SDS011;16707;48.106;11.548;2022-08-01T07:29:27;3.83;;;2.40;;
29812;SDS011;16707;48.106;11.548;2022-08-01T07:31:55;3.00;;;2.70;;
29812;SDS011;16707;48.106;11.548;2022-08-01T07:34:25;2.90;;;2.70;;
29812;SDS011;16707;48.106;11.548;2022-08-01T07:36:57;2.80;;;2.50;;
29812;SDS011;16707;48.106;11.548;2022-08-01T07:39:28;3.78;;;2.60;;
29812;SDS011;16707;48.106;11.548;2022-08-01T07:41:56;3.17;;;2.80;;
29812;SDS011;16707;48.106;11.548;2022-08-01T07:44:23;3.38;;;2.67;;
29812;SDS011;16707;48.106;11.548;2022-08-01T07:46:54;4.72;;;2.95;;
29812;SDS011;16707;48.106;11.548;2022-08-01T07:49:22;3.60;;;3.22;;
29812;SDS011;16707;48.106;11.548;2022-08-01T07:51:50;3.65;;;2.97;;
29812;SDS011;16707;48.106;11.548;2022-08-01T07:54:17;3.15;;;2.85;;
29812;SDS011;16707;48.106;11.548;2022-08-01T07:56:50;3.63;;;2.90;;
29812;SDS011;16707;48.106;11.548;2022-08-01T07:59:21;3.50;;;2.78;;
29812;SDS011;16707;48.106;11.548;2022-08-01T08:01:50;3.53;;;3.20;;
29812;SDS011;16707;48.106;11.548;2022-08-01T08:04:18;3.35;;;3.03;;
29812;SDS011;16707;48.106;11.548;2022-08-01T08:06:45;3.25;;;2.72;;
29812;SDS011;16707;48.106;11.548;2022-08-01T08:09:15;3.28;;;2.88;;
29812;SDS011;16707;48.106;11.548;2022-08-01T08:11:42;5.53;;;3.03;;
29812;SDS011;16707;48.106;11.548;2022-08-01T08:14:11;5.07;;;3.33;;
29812;SDS011;16707;48.106;11.548;2022-08-01T08:16:38;2.95;;;2.72;;
29812;SDS011;16707;48.106;11.548;2022-08-01T08:19:05;3.53;;;2.50;;
29812;SDS011;16707;48.106;11.548;2022-08-01T08:21:32;3.65;;;3.03;;
29812;SDS011;16707;48.106;11.548;2022-08-01T08:23:59;3.53;;;2.85;;
29812;SDS011;16707;48.106;11.548;2022-08-01T08:26:44;2.92;;;2.63;;
29812;SDS011;16707;48.106;11.548;2022-08-01T08:29:15;3.38;;;2.78;;
29812;SDS011;16707;48.106;11.548;2022-08-01T08:31:42;3.38;;;2.92;;
29812;SDS011;16707;48.106;11.548;2022-08-01T08:34:10;3.60;;;3.10;;
29812;SDS011;16707;48.106;11.548;2022-08-01T08:36:37;3.28;;;2.80;;
29812;SDS011;16707;48.106;11.548;2022-08-01T08:39:04;4.30;;;3.10;;
29812;SDS011;16707;48.106;11.548;2022-08-01T08:41:32;3.38;;;3.08;;
29812;SDS011;16707;48.106;11.548;2022-08-01T08:44:00;4.65;;;2.97;;
29812;SDS011;16707;48.106;11.548;2022-08-01T08:46:31;4.20;;;2.75;;
29812;SDS011;16707;48.106;11.548;2022-08-01T08:48:59;3.45;;;2.92;;
29812;SDS011;16707;48.106;11.548;2022-08-01T08:51:29;4.63;;;3.25;;
29812;SDS011;16707;48.106;11.548;2022-08-01T08:54:00;3.83;;;2.53;;
29812;SDS011;16707;48.106;11.548;2022-08-01T08:56:29;3.60;;;2.60;;
29812;SDS011;16707;48.106;11.548;2022-08-01T08:58:59;3.15;;;2.83;;
29812;SDS011;16707;48.106;11.548;2022-08-01T09:01:33;3.80;;;2.53;;
29812;SDS011;16707;48.106;11.548;2022-08-01T09:04:01;3.63;;;2.33;;
29812;SDS011;16707;48.106;11.548;2022-08-01T09:06:29;5.10;;;2.78;;
29812;SDS011;16707;48.106;11.548;2022-08-01T09:08:56;2.40;;;2.20;;
29812;SDS011;16707;48.106;11.548;2022-08-01T09:11:26;3.72;;;2.55;;
29812;SDS011;16707;48.106;11.548;2022-08-01T09:14:03;5.28;;;2.85;;
29812;SDS011;16707;48.106;11.548;2022-08-01T09:16:34;3.58;;;2.50;;
29812;SDS011;16707;48.106;11.548;2022-08-01T09:19:06;3.38;;;2.67;;
29812;SDS011;16707;48.106;11.548;2022-08-01T09:21:39;3.17;;;2.47;;
29812;SDS011;16707;48.106;11.548;2022-08-01T09:24:20;3.47;;;2.63;;
29812;SDS011;16707;48.106;11.548;2022-08-01T09:26:47;2.72;;;2.30;;
29812;SDS011;16707;48.106;11.548;2022-08-01T09:29:19;3.42;;;2.45;;
29812;SDS011;16707;48.106;11.548;2022-08-01T09:31:51;3.17;;;2.30;;
29812;SDS011;16707;48.106;11.548;2022-08-01T09:34:23;2.67;;;2.45;;
29812;SDS011;16707;48.106;11.548;2022-08-01T09:36:53;2.58;;;2.10;;
29812;SDS011;16707;48.106;11.548;2022-08-01T09:39:24;2.85;;;2.20;;
29812;SDS011;16707;48.106;11.548;2022-08-01T09:41:54;2.20;;;2.00;;
29812;SDS011;16707;48.106;11.548;2022-08-01T09:44:36;4.05;;;2.30;;
29812;SDS011;16707;48.106;11.548;2022-08-01T09:47:06;2.85;;;2.13;;
29812;SDS011;16707;48.106;11.548;2022-08-01T09:49:35;2.05;;;1.85;;
29812;SDS011;16707;48.106;11.548;2022-08-01T09:52:11;2.35;;;1.92;;
29812;SDS011;16707;48.106;11.548;2022-08-01T09:54:41;2.67;;;1.92;;
29812;SDS011;16707;48.106;11.548;2022-08-01T09:57:10;3.10;;;2.00;;
29812;SDS011;16707;48.106;11.548;2022-08-01T09:59:40;3.08;;;2.00;;
29812;SDS011;16707;48.106;11.548;2022-08-01T10:02:27;2.78;;;2.13;;
29812;SDS011;16707;48.106;11.548;2022-08-01T10:04:57;2.08;;;1.88;;
29812;SDS011;16707;48.106;11.548;2022-08-01T10:07:25;1.95;;;1.80;;
29812;SDS011;16707;48.106;11.548;2022-08-01T10:09:55;2.75;;;1.95;;
29812;SDS011;16707;48.106;11.548;2022-08-01T10:12:35;2.30;;;2.08;;
29812;SDS011;16707;48.106;11.548;2022-08-01T10:15:09;3.58;;;2.17;;
29812;SDS011;16707;48.106;11.548;2022-08-01T10:17:40;2.42;;;1.92;;
29812;SDS011;16707;48.106;11.548;2022-08-01T10:22:43;3.00;;;2.10;;
29812;SDS011;16707;48.106;11.548;2022-08-01T10:25:18;6.18;;;2.38;;
29812;SDS011;16707;48.106;11.548;2022-08-01T10:27:52;2.72;;;2.00;;
29812;SDS011;16707;48.106;11.548;2022-08-01T10:30:20;3.15;;;1.88;;
29812;SDS011;16707;48.106;11.548;2022-08-01T10:32:50;2.30;;;1.83;;
29812;SDS011;16707;48.106;11.548;2022-08-01T10:35:18;2.38;;;1.85;;
29812;SDS011;16707;48.106;11.548;2022-08-01T10:37:53;2.38;;;2.00;;
29812;SDS011;16707;48.106;11.548;2022-08-01T10:40:23;3.08;;;1.80;;
29812;SDS011;16707;48.106;11.548;2022-08-01T10:42:51;2.03;;;1.83;;
29812;SDS011;16707;48.106;11.548;2022-08-01T10:45:18;3.22;;;1.92;;
29812;SDS011;16707;48.106;11.548;2022-08-01T10:47:51;2.00;;;1.80;;
29812;SDS011;16707;48.106;11.548;2022-08-01T10:50:27;1.63;;;1.50;;
29812;SDS011;16707;48.106;11.548;2022-08-01T10:53:12;2.33;;;1.67;;
29812;SDS011;16707;48.106;11.548;2022-08-01T10:55:48;2.60;;;1.90;;
29812;SDS011;16707;48.106;11.548;2022-08-01T10:58:23;3.42;;;2.28;;
29812;SDS011;16707;48.106;11.548;2022-08-01T11:03:57;3.10;;;1.73;;
29812;SDS011;16707;48.106;11.548;2022-08-01T11:06:40;2.78;;;1.73;;
29812;SDS011;16707;48.106;11.548;2022-08-01T11:09:20;2.97;;;1.90;;
29812;SDS011;16707;48.106;11.548;2022-08-01T11:11:58;2.70;;;1.95;;
29812;SDS011;16707;48.106;11.548;2022-08-01T11:14:31;2.13;;;1.70;;
29812;SDS011;16707;48.106;11.548;2022-08-01T11:20:10;1.92;;;1.70;;
29812;SDS011;16707;48.106;11.548;2022-08-01T11:26:11;2.22;;;1.90;;
29812;SDS011;16707;48.106;11.548;2022-08-01T11:28:43;2.05;;;1.80;;
29812;SDS011;16707;48.106;11.548;2022-08-01T11:31:28;2.92;;;1.77;;
29812;SDS011;16707;48.106;11.548;2022-08-01T11:33:59;2.08;;;1.73;;
29812;SDS011;16707;48.106;11.548;2022-08-01T11:36:29;2.45;;;1.73;;
29812;SDS011;16707;48.106;11.548;2022-08-01T11:41:48;1.98;;;1.77;;
29812;SDS011;16707;48.106;11.548;2022-08-01T11:44:19;3.85;;;2.10;;
29812;SDS011;16707;48.106;11.548;2022-08-01T11:46:54;2.00;;;1.80;;
29812;SDS011;16707;48.106;11.548;2022-08-01T11:49:29;1.88;;;1.73;;
29812;SDS011;16707;48.106;11.548;2022-08-01T11:52:25;5.22;;;1.90;;
29812;SDS011;16707;48.106;11.548;2022-08-01T11:54:54;2.60;;;1.63;;
29812;SDS011;16707;48.106;11.548;2022-08-01T11:57:26;3.33;;;1.55;;
29812;SDS011;16707;48.106;11.548;2022-08-01T11:59:56;2.22;;;1.50;;
29812;SDS011;16707;48.106;11.548;2022-08-01T12:02:28;1.77;;;1.50;;
29812;SDS011;16707;48.106;11.548;2022-08-01T12:04:57;2.70;;;1.80;;
29812;SDS011;16707;48.106;11.548;2022-08-01T12:07:28;1.70;;;1.42;;
29812;SDS011;16707;48.106;11.548;2022-08-01T12:09:58;1.77;;;1.40;;
29812;SDS011;16707;48.106;11.548;2022-08-01T12:12:29;2.10;;;1.38;;
29812;SDS011;16707;48.106;11.548;2022-08-01T12:14:59;3.05;;;1.52;;
29812;SDS011;16707;48.106;11.548;2022-08-01T12:17:34;2.67;;;1.30;;
29812;SDS011;16707;48.106;11.548;2022-08-01T12:20:04;1.85;;;1.30;;
29812;SDS011;16707;48.106;11.548;2022-08-01T12:22:36;2.03;;;1.55;;
29812;SDS011;16707;48.106;11.548;2022-08-01T12:25:11;2.25;;;1.30;;
29812;SDS011;16707;48.106;11.548;2022-08-01T12:27:42;3.45;;;1.48;;
29812;SDS011;16707;48.106;11.548;2022-08-01T12:30:12;3.28;;;1.45;;
29812;SDS011;16707;48.106;11.548;2022-08-01T12:32:42;1.60;;;1.50;;
29812;SDS011;16707;48.106;11.548;2022-08-01T12:35:12;2.63;;;1.40;;
29812;SDS011;16707;48.106;11.548;2022-08-01T12:37:45;1.67;;;1.58;;
29812;SDS011;16707;48.106;11.548;2022-08-01T12:40:15;2.13;;;1.45;;
29812;SDS011;16707;48.106;11.548;2022-08-01T12:42:44;1.40;;;1.30;;
29812;SDS011;16707;48.106;11.548;2022-08-01T12:45:22;2.03;;;1.40;;
29812;SDS011;16707;48.106;11.548;2022-08-01T12:47:52;1.30;;;1.20;;
29812;SDS011;16707;48.106;11.548;2022-08-01T12:50:27;2.30;;;1.33;;
29812;SDS011;16707;48.106;11.548;2022-08-01T12:52:57;1.55;;;1.20;;
29812;SDS011;16707;48.106;11.548;2022-08-01T12:55:25;1.20;;;1.10;;
29812;SDS011;16707;48.106;11.548;2022-08-01T12:58:03;1.60;;;1.30;;
29812;SDS011;16707;48.106;11.548;2022-08-01T13:00:33;2.38;;;2.08;;
29812;SDS011;16707;48.106;11.548;2022-08-01T13:03:02;1.33;;;1.23;;
29812;SDS011;16707;48.106;11.548;2022-08-01T13:05:43;1.10;;;1.00;;
29812;SDS011;16707;48.106;11.548;2022-08-01T13:08:15;2.58;;;1.35;;
29812;SDS011;16707;48.106;11.548;2022-08-01T13:10:45;1.40;;;1.30;;
29812;SDS011;16707;48.106;11.548;2022-08-01T13:13:13;1.88;;;1.33;;
29812;SDS011;16707;48.106;11.548;2022-08-01T13:15:45;1.20;;;1.10;;
29812;SDS011;16707;48.106;11.548;2022-08-01T13:18:27;1.63;;;1.33;;
29812;SDS011;16707;48.106;11.548;2022-08-01T13:21:06;1.40;;;1.10;;
29812;SDS011;16707;48.106;11.548;2022-08-01T13:23:59;3.53;;;1.42;;
29812;SDS011;16707;48.106;11.548;2022-08-01T13:26:46;2.13;;;1.65;;
29812;SDS011;16707;48.106;11.548;2022-08-01T13:29:29;3.28;;;1.30;;
29812;SDS011;16707;48.106;11.548;2022-08-01T13:31:57;1.80;;;1.63;;
29812;SDS011;16707;48.106;11.548;2022-08-01T13:34:31;2.20;;;1.67;;
29812;SDS011;16707;48.106;11.548;2022-08-01T13:37:00;1.50;;;1.40;;
29812;SDS011;16707;48.106;11.548;2022-08-01T13:39:29;1.27;;;1.13;;
29812;SDS011;16707;48.106;11.548;2022-08-01T13:42:13;3.08;;;1.40;;
29812;SDS011;16707;48.106;11.548;2022-08-01T13:44:43;1.42;;;1.20;;
29812;SDS011;16707;48.106;11.548;2022-08-01T13:47:15;3.13;;;1.30;;
29812;SDS011;16707;48.106;11.548;2022-08-01T13:49:42;1.30;;;1.20;;
29812;SDS011;16707;48.106;11.548;2022-08-01T13:52:10;1.90;;;1.13;;
29812;SDS011;16707;48.106;11.548;2022-08-01T13:54:38;3.00;;;1.30;;
29812;SDS011;16707;48.106;11.548;2022-08-01T13:57:07;2.35;;;1.20;;
29812;SDS011;16707;48.106;11.548;2022-08-01T13:59:39;1.80;;;1.30;;
29812;SDS011;16707;48.106;11.548;2022-08-01T14:02:07;3.95;;;1.75;;
29812;SDS011;16707;48.106;11.548;2022-08-01T14:04:37;1.50;;;1.30;;
29812;SDS011;16707;48.106;11.548;2022-08-01T14:07:05;1.67;;;1.30;;
29812;SDS011;16707;48.106;11.548;2022-08-01T14:09:32;1.35;;;1.20;;
29812;SDS011;16707;48.106;11.548;2022-08-01T14:12:13;1.30;;;1.20;;
29812;SDS011;16707;48.106;11.548;2022-08-01T14:14:43;2.58;;;1.20;;
29812;SDS011;16707;48.106;11.548;2022-08-01T14:17:13;1.20;;;1.10;;
29812;SDS011;16707;48.106;11.548;2022-08-01T14:19:40;2.17;;;1.10;;
29812;SDS011;16707;48.106;11.548;2022-08-01T14:22:13;2.00;;;1.55;;
29812;SDS011;16707;48.106;11.548;2022-08-01T14:24:40;1.80;;;1.42;;
29812;SDS011;16707;48.106;11.548;2022-08-01T14:27:12;3.13;;;1.48;;
29812;SDS011;16707;48.106;11.548;2022-08-01T14:29:47;2.50;;;1.17;;
29812;SDS011;16707;48.106;11.548;2022-08-01T14:32:14;2.40;;;1.48;;
29812;SDS011;16707;48.106;11.548;2022-08-01T14:34:42;1.67;;;1.48;;
29812;SDS011;16707;48.106;11.548;2022-08-01T14:37:14;3.33;;;1.80;;
29812;SDS011;16707;48.106;11.548;2022-08-01T14:39:41;3.40;;;1.40;;
29812;SDS011;16707;48.106;11.548;2022-08-01T14:42:11;2.03;;;1.52;;
29812;SDS011;16707;48.106;11.548;2022-08-01T14:44:45;2.22;;;1.70;;
29812;SDS011;16707;48.106;11.548;2022-08-01T14:47:15;3.22;;;2.35;;
29812;SDS011;16707;48.106;11.548;2022-08-01T14:49:45;2.67;;;1.90;;
29812;SDS011;16707;48.106;11.548;2022-08-01T14:52:12;3.38;;;2.00;;
29812;SDS011;16707;48.106;11.548;2022-08-01T14:54:46;2.15;;;1.90;;
29812;SDS011;16707;48.106;11.548;2022-08-01T14:57:16;2.08;;;1.80;;
29812;SDS011;16707;48.106;11.548;2022-08-01T14:59:48;3.63;;;2.20;;
29812;SDS011;16707;48.106;11.548;2022-08-01T15:02:15;3.60;;;1.80;;
29812;SDS011;16707;48.106;11.548;2022-08-01T15:04:43;4.22;;;1.83;;
29812;SDS011;16707;48.106;11.548;2022-08-01T15:07:10;3.40;;;1.95;;
29812;SDS011;16707;48.106;11.548;2022-08-01T15:09:41;2.60;;;2.08;;
29812;SDS011;16707;48.106;11.548;2022-08-01T15:12:15;3.13;;;1.90;;
29812;SDS011;16707;48.106;11.548;2022-08-01T15:14:45;2.33;;;2.03;;
29812;SDS011;16707;48.106;11.548;2022-08-01T15:17:17;2.78;;;1.70;;
29812;SDS011;16707;48.106;11.548;2022-08-01T15:19:49;2.25;;;1.95;;
29812;SDS011;16707;48.106;11.548;2022-08-01T15:22:18;3.08;;;1.63;;
29812;SDS011;16707;48.106;11.548;2022-08-01T15:24:46;2.10;;;1.58;;
29812;SDS011;16707;48.106;11.548;2022-08-01T15:27:19;2.97;;;1.60;;
29812;SDS011;16707;48.106;11.548;2022-08-01T15:29:47;2.67;;;1.80;;
29812;SDS011;16707;48.106;11.548;2022-08-01T15:32:18;2.90;;;2.10;;
29812;SDS011;16707;48.106;11.548;2022-08-01T15:34:46;2.72;;;1.80;;
29812;SDS011;16707;48.106;11.548;2022-08-01T15:37:22;3.17;;;1.63;;
29812;SDS011;16707;48.106;11.548;2022-08-01T15:39:51;2.17;;;1.70;;
29812;SDS011;16707;48.106;11.548;2022-08-01T15:42:23;2.60;;;2.15;;
29812;SDS011;16707;48.106;11.548;2022-08-01T15:44:56;2.40;;;1.77;;
29812;SDS011;16707;48.106;11.548;2022-08-01T15:47:29;3.75;;;2.00;;
29812;SDS011;16707;48.106;11.548;2022-08-01T15:50:04;4.15;;;2.13;;
29812;SDS011;16707;48.106;11.548;2022-08-01T15:52:32;2.33;;;2.00;;
29812;SDS011;16707;48.106;11.548;2022-08-01T15:55:03;2.58;;;1.90;;
29812;SDS011;16707;48.106;11.548;2022-08-01T15:57:32;3.25;;;1.80;;
29812;SDS011;16707;48.106;11.548;2022-08-01T16:00:00;2.95;;;2.20;;
29812;SDS011;16707;48.106;11.548;2022-08-01T16:02:32;3.35;;;2.10;;
29812;SDS011;16707;48.106;11.548;2022-08-01T16:04:59;3.80;;;2.10;;
29812;SDS011;16707;48.106;11.548;2022-08-01T16:07:34;2.65;;;2.20;;